sensor_id;sensor_type;location;lat;lon;timestamp;P1;durP1;ratioP1;P2;durP2;ratioP2
28009;SDS011;15334;49.494;8.410;2023-06-14T00:02:21;7.15;;;3.20;;
28009;SDS011;15334;49.494;8.410;2023-06-14T00:04:49;8.45;;;3.97;;
28009;SDS011;15334;49.494;8.410;2023-06-14T00:07:20;7.30;;;3.80;;
28009;SDS011;15334;49.494;8.410;2023-06-14T00:10:02;7.67;;;4.00;;
28009;SDS011;15334;49.494;8.410;2023-06-14T00:12:30;6.95;;;3.60;;
28009;SDS011;15334;49.494;8.410;2023-06-14T00:14:58;5.85;;;3.60;;
28009;SDS011;15334;49.494;8.410;2023-06-14T00:17:27;7.50;;;3.78;;
28009;SDS011;15334;49.494;8.410;2023-06-14T00:19:58;8.93;;;4.53;;
28009;SDS011;15334;49.494;8.410;2023-06-14T00:22:31;6.22;;;3.60;;
28009;SDS011;15334;49.494;8.410;2023-06-14T00:25:01;10.05;;;4.78;;
28009;SDS011;15334;49.494;8.410;2023-06-14T00:27:49;6.32;;;3.63;;
28009;SDS011;15334;49.494;8.410;2023-06-14T00:30:17;6.88;;;4.15;;
28009;SDS011;15334;49.494;8.410;2023-06-14T00:32:45;10.38;;;4.10;;
28009;SDS011;15334;49.494;8.410;2023-06-14T00:35:14;7.32;;;4.05;;
28009;SDS011;15334;49.494;8.410;2023-06-14T00:37:42;8.73;;;3.85;;
28009;SDS011;15334;49.494;8.410;2023-06-14T00:40:11;7.47;;;3.33;;
28009;SDS011;15334;49.494;8.410;2023-06-14T00:42:40;7.63;;;4.43;;
28009;SDS011;15334;49.494;8.410;2023-06-14T00:45:08;13.43;;;4.88;;
28009;SDS011;15334;49.494;8.410;2023-06-14T00:47:37;7.93;;;4.35;;
28009;SDS011;15334;49.494;8.410;2023-06-14T00:50:08;7.13;;;3.60;;
28009;SDS011;15334;49.494;8.410;2023-06-14T00:52:37;10.55;;;4.45;;
28009;SDS011;15334;49.494;8.410;2023-06-14T00:55:06;8.80;;;4.40;;
28009;SDS011;15334;49.494;8.410;2023-06-14T00:57:36;7.45;;;4.00;;
28009;SDS011;15334;49.494;8.410;2023-06-14T01:00:07;9.83;;;3.97;;
28009;SDS011;15334;49.494;8.410;2023-06-14T01:02:36;10.18;;;3.95;;
28009;SDS011;15334;49.494;8.410;2023-06-14T01:05:05;6.50;;;3.70;;
28009;SDS011;15334;49.494;8.410;2023-06-14T01:07:37;8.80;;;4.00;;
28009;SDS011;15334;49.494;8.410;2023-06-14T01:10:19;6.65;;;3.33;;
28009;SDS011;15334;49.494;8.410;2023-06-14T01:12:58;6.82;;;3.70;;
28009;SDS011;15334;49.494;8.410;2023-06-14T01:15:31;9.52;;;4.07;;
28009;SDS011;15334;49.494;8.410;2023-06-14T01:17:59;7.65;;;3.75;;
28009;SDS011;15334;49.494;8.410;2023-06-14T01:20:31;9.50;;;4.05;;
28009;SDS011;15334;49.494;8.410;2023-06-14T01:23:04;8.05;;;4.10;;
28009;SDS011;15334;49.494;8.410;2023-06-14T01:25:33;6.88;;;4.15;;
28009;SDS011;15334;49.494;8.410;2023-06-14T01:28:02;8.18;;;4.22;;
28009;SDS011;15334;49.494;8.410;2023-06-14T01:30:37;12.18;;;4.43;;
28009;SDS011;15334;49.494;8.410;2023-06-14T01:33:11;6.63;;;4.25;;
28009;SDS011;15334;49.494;8.410;2023-06-14T01:35:41;7.13;;;3.70;;
28009;SDS011;15334;49.494;8.410;2023-06-14T01:38:11;8.73;;;4.18;;
28009;SDS011;15334;49.494;8.410;2023-06-14T01:40:40;9.50;;;4.03;;
28009;SDS011;15334;49.494;8.410;2023-06-14T01:43:11;9.50;;;4.65;;
28009;SDS011;15334;49.494;8.410;2023-06-14T01:45:41;7.40;;;4.05;;
28009;SDS011;15334;49.494;8.410;2023-06-14T01:48:10;9.98;;;3.88;;
28009;SDS011;15334;49.494;8.410;2023-06-14T01:50:39;8.60;;;4.00;;
28009;SDS011;15334;49.494;8.410;2023-06-14T01:53:07;8.43;;;4.20;;
28009;SDS011;15334;49.494;8.410;2023-06-14T01:55:37;7.28;;;4.18;;
28009;SDS011;15334;49.494;8.410;2023-06-14T01:58:09;7.63;;;4.20;;
28009;SDS011;15334;49.494;8.410;2023-06-14T02:00:38;9.68;;;4.50;;
28009;SDS011;15334;49.494;8.410;2023-06-14T02:03:06;7.75;;;3.90;;
28009;SDS011;15334;49.494;8.410;2023-06-14T02:05:34;6.57;;;4.30;;
28009;SDS011;15334;49.494;8.410;2023-06-14T02:08:05;7.75;;;3.72;;
28009;SDS011;15334;49.494;8.410;2023-06-14T02:10:33;7.28;;;3.97;;
28009;SDS011;15334;49.494;8.410;2023-06-14T02:13:03;9.93;;;4.65;;
28009;SDS011;15334;49.494;8.410;2023-06-14T02:15:32;10.30;;;4.78;;
28009;SDS011;15334;49.494;8.410;2023-06-14T02:18:02;8.20;;;4.68;;
28009;SDS011;15334;49.494;8.410;2023-06-14T02:20:30;9.30;;;3.95;;
28009;SDS011;15334;49.494;8.410;2023-06-14T02:22:58;11.05;;;4.28;;
28009;SDS011;15334;49.494;8.410;2023-06-14T02:25:27;6.80;;;4.20;;
28009;SDS011;15334;49.494;8.410;2023-06-14T02:27:55;7.78;;;4.20;;
28009;SDS011;15334;49.494;8.410;2023-06-14T02:30:25;10.93;;;5.28;;
28009;SDS011;15334;49.494;8.410;2023-06-14T02:32:53;10.27;;;5.07;;
28009;SDS011;15334;49.494;8.410;2023-06-14T02:35:22;11.07;;;5.05;;
28009;SDS011;15334;49.494;8.410;2023-06-14T02:37:53;18.52;;;5.13;;
28009;SDS011;15334;49.494;8.410;2023-06-14T02:40:21;6.72;;;4.68;;
28009;SDS011;15334;49.494;8.410;2023-06-14T02:42:49;10.88;;;5.03;;
28009;SDS011;15334;49.494;8.410;2023-06-14T02:45:17;6.20;;;4.03;;
28009;SDS011;15334;49.494;8.410;2023-06-14T02:47:48;8.18;;;4.88;;
28009;SDS011;15334;49.494;8.410;2023-06-14T02:50:18;9.43;;;5.35;;
28009;SDS011;15334;49.494;8.410;2023-06-14T02:52:47;8.55;;;4.78;;
28009;SDS011;15334;49.494;8.410;2023-06-14T02:55:15;10.40;;;5.45;;
28009;SDS011;15334;49.494;8.410;2023-06-14T02:57:44;13.13;;;6.40;;
28009;SDS011;15334;49.494;8.410;2023-06-14T03:00:14;9.52;;;5.50;;
28009;SDS011;15334;49.494;8.410;2023-06-14T03:02:43;8.68;;;4.80;;
28009;SDS011;15334;49.494;8.410;2023-06-14T03:05:13;8.48;;;5.70;;
28009;SDS011;15334;49.494;8.410;2023-06-14T03:07:42;8.75;;;5.13;;
28009;SDS011;15334;49.494;8.410;2023-06-14T03:10:11;10.27;;;5.32;;
28009;SDS011;15334;49.494;8.410;2023-06-14T03:12:40;8.68;;;4.88;;
28009;SDS011;15334;49.494;8.410;2023-06-14T03:15:08;7.63;;;4.53;;
28009;SDS011;15334;49.494;8.410;2023-06-14T03:17:37;9.00;;;5.00;;
28009;SDS011;15334;49.494;8.410;2023-06-14T03:20:06;9.75;;;5.35;;
28009;SDS011;15334;49.494;8.410;2023-06-14T03:22:36;10.23;;;5.15;;
28009;SDS011;15334;49.494;8.410;2023-06-14T03:25:06;8.93;;;5.05;;
28009;SDS011;15334;49.494;8.410;2023-06-14T03:27:36;7.40;;;5.03;;
28009;SDS011;15334;49.494;8.410;2023-06-14T03:30:05;9.32;;;5.60;;
28009;SDS011;15334;49.494;8.410;2023-06-14T03:32:34;8.60;;;4.63;;
28009;SDS011;15334;49.494;8.410;2023-06-14T03:35:02;8.35;;;5.13;;
28009;SDS011;15334;49.494;8.410;2023-06-14T03:37:30;10.75;;;5.28;;
28009;SDS011;15334;49.494;8.410;2023-06-14T03:39:59;8.30;;;5.30;;
28009;SDS011;15334;49.494;8.410;2023-06-14T03:42:31;8.65;;;5.20;;
28009;SDS011;15334;49.494;8.410;2023-06-14T03:44:59;8.13;;;4.80;;
28009;SDS011;15334;49.494;8.410;2023-06-14T03:47:27;6.70;;;5.05;;
28009;SDS011;15334;49.494;8.410;2023-06-14T03:49:55;9.80;;;5.15;;
28009;SDS011;15334;49.494;8.410;2023-06-14T03:52:23;8.68;;;5.30;;
28009;SDS011;15334;49.494;8.410;2023-06-14T03:54:52;7.63;;;4.68;;
28009;SDS011;15334;49.494;8.410;2023-06-14T03:57:42;9.40;;;5.05;;
28009;SDS011;15334;49.494;8.410;2023-06-14T04:00:10;11.13;;;6.35;;
28009;SDS011;15334;49.494;8.410;2023-06-14T04:02:39;11.32;;;4.90;;
28009;SDS011;15334;49.494;8.410;2023-06-14T04:05:07;7.43;;;4.78;;
28009;SDS011;15334;49.494;8.410;2023-06-14T04:07:36;8.55;;;4.90;;
28009;SDS011;15334;49.494;8.410;2023-06-14T04:10:07;7.30;;;4.43;;
28009;SDS011;15334;49.494;8.410;2023-06-14T04:12:35;9.20;;;4.68;;
28009;SDS011;15334;49.494;8.410;2023-06-14T04:15:06;7.13;;;4.13;;
28009;SDS011;15334;49.494;8.410;2023-06-14T04:17:47;7.97;;;4.15;;
28009;SDS011;15334;49.494;8.410;2023-06-14T04:20:16;11.00;;;5.05;;
28009;SDS011;15334;49.494;8.410;2023-06-14T04:22:44;8.63;;;4.78;;
28009;SDS011;15334;49.494;8.410;2023-06-14T04:25:12;10.43;;;4.95;;
28009;SDS011;15334;49.494;8.410;2023-06-14T04:27:41;9.38;;;4.22;;
28009;SDS011;15334;49.494;8.410;2023-06-14T04:30:11;11.43;;;4.40;;
28009;SDS011;15334;49.494;8.410;2023-06-14T04:32:40;11.40;;;4.20;;
28009;SDS011;15334;49.494;8.410;2023-06-14T04:35:09;9.80;;;4.75;;
28009;SDS011;15334;49.494;8.410;2023-06-14T04:37:37;8.40;;;5.25;;
28009;SDS011;15334;49.494;8.410;2023-06-14T04:40:08;8.20;;;4.25;;
28009;SDS011;15334;49.494;8.410;2023-06-14T04:42:38;8.13;;;4.57;;
28009;SDS011;15334;49.494;8.410;2023-06-14T04:45:07;9.48;;;4.97;;
28009;SDS011;15334;49.494;8.410;2023-06-14T04:47:38;7.43;;;4.68;;
28009;SDS011;15334;49.494;8.410;2023-06-14T04:50:07;8.77;;;4.65;;
28009;SDS011;15334;49.494;8.410;2023-06-14T04:52:36;6.85;;;4.28;;
28009;SDS011;15334;49.494;8.410;2023-06-14T04:55:05;10.90;;;4.53;;
28009;SDS011;15334;49.494;8.410;2023-06-14T04:57:33;9.63;;;5.03;;
28009;SDS011;15334;49.494;8.410;2023-06-14T05:00:02;11.63;;;4.97;;
28009;SDS011;15334;49.494;8.410;2023-06-14T05:02:32;8.85;;;3.85;;
28009;SDS011;15334;49.494;8.410;2023-06-14T05:05:04;7.20;;;4.28;;
28009;SDS011;15334;49.494;8.410;2023-06-14T05:07:34;7.13;;;4.40;;
28009;SDS011;15334;49.494;8.410;2023-06-14T05:10:05;13.20;;;4.65;;
28009;SDS011;15334;49.494;8.410;2023-06-14T05:12:34;9.20;;;4.25;;
28009;SDS011;15334;49.494;8.410;2023-06-14T05:15:03;12.10;;;4.50;;
28009;SDS011;15334;49.494;8.410;2023-06-14T05:17:31;6.72;;;4.13;;
28009;SDS011;15334;49.494;8.410;2023-06-14T05:19:59;6.78;;;3.97;;
28009;SDS011;15334;49.494;8.410;2023-06-14T05:22:28;7.88;;;4.35;;
28009;SDS011;15334;49.494;8.410;2023-06-14T05:24:56;13.23;;;4.35;;
28009;SDS011;15334;49.494;8.410;2023-06-14T05:27:25;9.68;;;4.63;;
28009;SDS011;15334;49.494;8.410;2023-06-14T05:29:52;8.95;;;4.82;;
28009;SDS011;15334;49.494;8.410;2023-06-14T05:32:22;9.27;;;4.20;;
28009;SDS011;15334;49.494;8.410;2023-06-14T05:34:50;7.65;;;4.22;;
28009;SDS011;15334;49.494;8.410;2023-06-14T05:37:18;7.35;;;4.82;;
28009;SDS011;15334;49.494;8.410;2023-06-14T05:39:48;9.38;;;4.45;;
28009;SDS011;15334;49.494;8.410;2023-06-14T05:42:16;8.38;;;4.55;;
28009;SDS011;15334;49.494;8.410;2023-06-14T05:44:44;5.95;;;4.07;;
28009;SDS011;15334;49.494;8.410;2023-06-14T05:47:12;9.15;;;4.28;;
28009;SDS011;15334;49.494;8.410;2023-06-14T05:49:41;10.35;;;4.45;;
28009;SDS011;15334;49.494;8.410;2023-06-14T05:52:09;7.20;;;4.50;;
28009;SDS011;15334;49.494;8.410;2023-06-14T05:54:39;7.85;;;4.45;;
28009;SDS011;15334;49.494;8.410;2023-06-14T05:57:09;9.73;;;4.75;;
28009;SDS011;15334;49.494;8.410;2023-06-14T05:59:38;12.38;;;4.22;;
28009;SDS011;15334;49.494;8.410;2023-06-14T06:02:06;8.27;;;3.92;;
28009;SDS011;15334;49.494;8.410;2023-06-14T06:04:34;11.45;;;4.50;;
28009;SDS011;15334;49.494;8.410;2023-06-14T06:07:02;16.92;;;4.70;;
28009;SDS011;15334;49.494;8.410;2023-06-14T06:09:32;11.10;;;4.15;;
28009;SDS011;15334;49.494;8.410;2023-06-14T06:12:00;14.00;;;4.50;;
28009;SDS011;15334;49.494;8.410;2023-06-14T06:14:29;8.23;;;4.20;;
28009;SDS011;15334;49.494;8.410;2023-06-14T06:16:58;8.32;;;4.30;;
28009;SDS011;15334;49.494;8.410;2023-06-14T06:19:26;8.07;;;4.47;;
28009;SDS011;15334;49.494;8.410;2023-06-14T06:21:55;7.45;;;4.45;;
28009;SDS011;15334;49.494;8.410;2023-06-14T06:24:23;9.38;;;4.13;;
28009;SDS011;15334;49.494;8.410;2023-06-14T06:26:51;7.78;;;4.20;;
28009;SDS011;15334;49.494;8.410;2023-06-14T06:29:20;9.30;;;4.45;;
28009;SDS011;15334;49.494;8.410;2023-06-14T06:31:49;9.43;;;3.90;;
28009;SDS011;15334;49.494;8.410;2023-06-14T06:34:17;9.43;;;4.10;;
28009;SDS011;15334;49.494;8.410;2023-06-14T06:36:45;7.95;;;4.13;;
28009;SDS011;15334;49.494;8.410;2023-06-14T06:39:13;7.53;;;4.20;;
28009;SDS011;15334;49.494;8.410;2023-06-14T06:41:41;7.65;;;3.78;;
28009;SDS011;15334;49.494;8.410;2023-06-14T06:44:09;8.50;;;3.53;;
28009;SDS011;15334;49.494;8.410;2023-06-14T06:46:39;5.53;;;3.05;;
28009;SDS011;15334;49.494;8.410;2023-06-14T06:49:10;7.00;;;3.72;;
28009;SDS011;15334;49.494;8.410;2023-06-14T06:51:41;11.60;;;3.70;;
28009;SDS011;15334;49.494;8.410;2023-06-14T06:54:09;4.93;;;3.20;;
28009;SDS011;15334;49.494;8.410;2023-06-14T06:56:38;6.10;;;2.78;;
28009;SDS011;15334;49.494;8.410;2023-06-14T06:59:06;6.53;;;3.60;;
28009;SDS011;15334;49.494;8.410;2023-06-14T07:01:34;6.93;;;3.80;;
28009;SDS011;15334;49.494;8.410;2023-06-14T07:04:02;5.75;;;3.50;;
28009;SDS011;15334;49.494;8.410;2023-06-14T07:06:32;6.53;;;3.22;;
28009;SDS011;15334;49.494;8.410;2023-06-14T07:09:00;5.20;;;3.15;;
28009;SDS011;15334;49.494;8.410;2023-06-14T07:11:30;7.20;;;4.22;;
28009;SDS011;15334;49.494;8.410;2023-06-14T07:13:58;5.78;;;3.78;;
28009;SDS011;15334;49.494;8.410;2023-06-14T07:16:26;8.20;;;3.85;;
28009;SDS011;15334;49.494;8.410;2023-06-14T07:18:54;6.35;;;3.50;;
28009;SDS011;15334;49.494;8.410;2023-06-14T07:21:22;5.90;;;3.50;;
28009;SDS011;15334;49.494;8.410;2023-06-14T07:23:53;7.80;;;3.22;;
28009;SDS011;15334;49.494;8.410;2023-06-14T07:26:22;8.45;;;3.38;;
28009;SDS011;15334;49.494;8.410;2023-06-14T07:28:51;10.57;;;3.47;;
28009;SDS011;15334;49.494;8.410;2023-06-14T07:31:19;5.97;;;3.53;;
28009;SDS011;15334;49.494;8.410;2023-06-14T07:33:47;8.27;;;4.05;;
28009;SDS011;15334;49.494;8.410;2023-06-14T07:36:15;6.15;;;3.20;;
28009;SDS011;15334;49.494;8.410;2023-06-14T07:38:44;9.05;;;4.10;;
28009;SDS011;15334;49.494;8.410;2023-06-14T07:41:14;8.10;;;3.72;;
28009;SDS011;15334;49.494;8.410;2023-06-14T07:43:43;6.97;;;3.67;;
28009;SDS011;15334;49.494;8.410;2023-06-14T07:46:11;7.97;;;3.80;;
28009;SDS011;15334;49.494;8.410;2023-06-14T07:48:39;5.53;;;3.47;;
28009;SDS011;15334;49.494;8.410;2023-06-14T07:51:08;9.32;;;3.88;;
28009;SDS011;15334;49.494;8.410;2023-06-14T07:53:36;6.38;;;3.75;;
28009;SDS011;15334;49.494;8.410;2023-06-14T07:56:05;6.60;;;3.70;;
28009;SDS011;15334;49.494;8.410;2023-06-14T07:58:34;10.77;;;3.78;;
28009;SDS011;15334;49.494;8.410;2023-06-14T08:01:02;6.45;;;3.42;;
28009;SDS011;15334;49.494;8.410;2023-06-14T08:03:32;5.72;;;3.10;;
28009;SDS011;15334;49.494;8.410;2023-06-14T08:06:01;6.78;;;3.17;;
28009;SDS011;15334;49.494;8.410;2023-06-14T08:08:29;6.10;;;2.97;;
28009;SDS011;15334;49.494;8.410;2023-06-14T08:10:57;5.97;;;3.10;;
28009;SDS011;15334;49.494;8.410;2023-06-14T08:13:25;5.60;;;3.10;;
28009;SDS011;15334;49.494;8.410;2023-06-14T08:15:55;7.20;;;3.40;;
28009;SDS011;15334;49.494;8.410;2023-06-14T08:18:23;6.32;;;3.25;;
28009;SDS011;15334;49.494;8.410;2023-06-14T08:20:51;8.90;;;3.60;;
28009;SDS011;15334;49.494;8.410;2023-06-14T08:23:20;6.07;;;3.45;;
28009;SDS011;15334;49.494;8.410;2023-06-14T08:25:48;7.50;;;3.30;;
28009;SDS011;15334;49.494;8.410;2023-06-14T08:28:16;7.43;;;3.10;;
28009;SDS011;15334;49.494;8.410;2023-06-14T08:30:44;8.88;;;3.55;;
28009;SDS011;15334;49.494;8.410;2023-06-14T08:33:14;5.57;;;3.28;;
28009;SDS011;15334;49.494;8.410;2023-06-14T08:35:43;6.13;;;2.97;;
28009;SDS011;15334;49.494;8.410;2023-06-14T08:38:11;8.82;;;2.90;;
28009;SDS011;15334;49.494;8.410;2023-06-14T08:40:39;4.60;;;2.95;;
28009;SDS011;15334;49.494;8.410;2023-06-14T08:43:09;5.25;;;2.75;;
28009;SDS011;15334;49.494;8.410;2023-06-14T08:45:37;6.07;;;3.28;;
28009;SDS011;15334;49.494;8.410;2023-06-14T08:48:06;5.47;;;2.92;;
28009;SDS011;15334;49.494;8.410;2023-06-14T08:50:37;6.38;;;3.05;;
28009;SDS011;15334;49.494;8.410;2023-06-14T08:53:08;4.32;;;2.63;;
28009;SDS011;15334;49.494;8.410;2023-06-14T08:55:39;5.28;;;2.80;;
28009;SDS011;15334;49.494;8.410;2023-06-14T08:58:09;6.95;;;2.67;;
28009;SDS011;15334;49.494;8.410;2023-06-14T09:00:41;6.68;;;2.45;;
28009;SDS011;15334;49.494;8.410;2023-06-14T09:03:11;5.35;;;2.78;;
28009;SDS011;15334;49.494;8.410;2023-06-14T09:05:42;4.60;;;2.63;;
28009;SDS011;15334;49.494;8.410;2023-06-14T09:08:12;4.07;;;2.05;;
28009;SDS011;15334;49.494;8.410;2023-06-14T09:10:40;5.43;;;2.97;;
28009;SDS011;15334;49.494;8.410;2023-06-14T09:13:09;7.97;;;2.53;;
28009;SDS011;15334;49.494;8.410;2023-06-14T09:15:37;5.30;;;2.67;;
28009;SDS011;15334;49.494;8.410;2023-06-14T09:18:05;9.15;;;2.70;;
28009;SDS011;15334;49.494;8.410;2023-06-14T09:20:33;6.18;;;2.60;;
28009;SDS011;15334;49.494;8.410;2023-06-14T09:23:03;5.55;;;2.78;;
28009;SDS011;15334;49.494;8.410;2023-06-14T09:25:36;5.43;;;2.50;;
28009;SDS011;15334;49.494;8.410;2023-06-14T09:28:10;4.47;;;2.38;;
28009;SDS011;15334;49.494;8.410;2023-06-14T09:30:38;5.00;;;2.60;;
28009;SDS011;15334;49.494;8.410;2023-06-14T09:33:07;6.15;;;2.65;;
28009;SDS011;15334;49.494;8.410;2023-06-14T09:35:35;7.15;;;2.50;;
28009;SDS011;15334;49.494;8.410;2023-06-14T09:38:05;4.53;;;2.50;;
28009;SDS011;15334;49.494;8.410;2023-06-14T09:40:34;6.28;;;2.25;;
28009;SDS011;15334;49.494;8.410;2023-06-14T09:43:04;4.20;;;2.40;;
28009;SDS011;15334;49.494;8.410;2023-06-14T09:45:34;7.30;;;2.35;;
28009;SDS011;15334;49.494;8.410;2023-06-14T09:48:03;4.63;;;2.38;;
28009;SDS011;15334;49.494;8.410;2023-06-14T09:50:33;9.00;;;2.50;;
28009;SDS011;15334;49.494;8.410;2023-06-14T09:53:02;6.70;;;2.72;;
28009;SDS011;15334;49.494;8.410;2023-06-14T09:55:34;6.40;;;2.53;;
28009;SDS011;15334;49.494;8.410;2023-06-14T09:58:05;5.47;;;2.47;;
28009;SDS011;15334;49.494;8.410;2023-06-14T10:00:35;4.28;;;2.55;;
28009;SDS011;15334;49.494;8.410;2023-06-14T10:03:06;5.28;;;2.88;;
28009;SDS011;15334;49.494;8.410;2023-06-14T10:05:39;6.32;;;2.20;;
28009;SDS011;15334;49.494;8.410;2023-06-14T10:08:13;7.43;;;3.03;;
28009;SDS011;15334;49.494;8.410;2023-06-14T10:10:43;6.53;;;2.75;;
28009;SDS011;15334;49.494;8.410;2023-06-14T10:13:12;7.15;;;2.78;;
28009;SDS011;15334;49.494;8.410;2023-06-14T10:15:42;5.68;;;2.88;;
28009;SDS011;15334;49.494;8.410;2023-06-14T10:18:17;5.75;;;2.65;;
28009;SDS011;15334;49.494;8.410;2023-06-14T10:20:53;6.05;;;2.50;;
28009;SDS011;15334;49.494;8.410;2023-06-14T10:23:32;4.82;;;2.88;;
28009;SDS011;15334;49.494;8.410;2023-06-14T10:26:04;3.83;;;2.33;;
28009;SDS011;15334;49.494;8.410;2023-06-14T10:28:32;8.02;;;2.50;;
28009;SDS011;15334;49.494;8.410;2023-06-14T10:31:04;4.30;;;2.40;;
28009;SDS011;15334;49.494;8.410;2023-06-14T10:33:34;4.68;;;2.65;;
28009;SDS011;15334;49.494;8.410;2023-06-14T10:39:05;4.57;;;2.60;;
28009;SDS011;15334;49.494;8.410;2023-06-14T10:41:35;4.32;;;2.60;;
28009;SDS011;15334;49.494;8.410;2023-06-14T10:47:09;5.82;;;2.38;;
28009;SDS011;15334;49.494;8.410;2023-06-14T10:49:40;4.30;;;2.17;;
28009;SDS011;15334;49.494;8.410;2023-06-14T10:52:09;3.55;;;2.38;;
28009;SDS011;15334;49.494;8.410;2023-06-14T10:54:56;4.13;;;2.35;;
28009;SDS011;15334;49.494;8.410;2023-06-14T10:57:35;8.43;;;2.63;;
28009;SDS011;15334;49.494;8.410;2023-06-14T11:00:17;4.40;;;2.67;;
28009;SDS011;15334;49.494;8.410;2023-06-14T11:03:05;4.80;;;2.53;;
28009;SDS011;15334;49.494;8.410;2023-06-14T11:06:08;4.22;;;2.15;;
28009;SDS011;15334;49.494;8.410;2023-06-14T11:11:48;6.28;;;2.72;;
28009;SDS011;15334;49.494;8.410;2023-06-14T11:14:18;4.80;;;2.58;;
28009;SDS011;15334;49.494;8.410;2023-06-14T11:16:47;5.25;;;2.90;;
28009;SDS011;15334;49.494;8.410;2023-06-14T11:19:16;7.78;;;3.03;;
28009;SDS011;15334;49.494;8.410;2023-06-14T11:21:46;6.78;;;2.55;;
28009;SDS011;15334;49.494;8.410;2023-06-14T11:24:15;4.53;;;2.30;;
28009;SDS011;15334;49.494;8.410;2023-06-14T11:26:44;5.57;;;2.67;;
28009;SDS011;15334;49.494;8.410;2023-06-14T11:29:16;5.18;;;2.63;;
28009;SDS011;15334;49.494;8.410;2023-06-14T11:31:48;3.90;;;2.30;;
28009;SDS011;15334;49.494;8.410;2023-06-14T11:34:16;7.88;;;2.67;;
28009;SDS011;15334;49.494;8.410;2023-06-14T11:36:46;4.55;;;2.15;;
28009;SDS011;15334;49.494;8.410;2023-06-14T11:39:14;4.13;;;2.00;;
28009;SDS011;15334;49.494;8.410;2023-06-14T11:41:43;3.53;;;2.35;;
28009;SDS011;15334;49.494;8.410;2023-06-14T11:44:12;5.35;;;2.65;;
28009;SDS011;15334;49.494;8.410;2023-06-14T11:46:42;3.33;;;2.03;;
28009;SDS011;15334;49.494;8.410;2023-06-14T11:49:10;4.10;;;2.50;;
28009;SDS011;15334;49.494;8.410;2023-06-14T11:51:38;4.72;;;2.60;;
28009;SDS011;15334;49.494;8.410;2023-06-14T11:54:06;4.10;;;2.35;;
28009;SDS011;15334;49.494;8.410;2023-06-14T11:56:36;3.75;;;2.00;;
28009;SDS011;15334;49.494;8.410;2023-06-14T11:59:04;4.22;;;2.05;;
28009;SDS011;15334;49.494;8.410;2023-06-14T12:01:35;3.72;;;2.38;;
28009;SDS011;15334;49.494;8.410;2023-06-14T12:04:06;4.18;;;2.30;;
28009;SDS011;15334;49.494;8.410;2023-06-14T12:06:34;5.10;;;2.25;;
28009;SDS011;15334;49.494;8.410;2023-06-14T12:09:06;5.00;;;2.65;;
28009;SDS011;15334;49.494;8.410;2023-06-14T12:11:39;5.10;;;2.92;;
28009;SDS011;15334;49.494;8.410;2023-06-14T12:14:08;4.88;;;2.80;;
28009;SDS011;15334;49.494;8.410;2023-06-14T12:16:37;5.00;;;2.28;;
28009;SDS011;15334;49.494;8.410;2023-06-14T12:19:11;5.95;;;2.35;;
28009;SDS011;15334;49.494;8.410;2023-06-14T12:21:40;4.80;;;2.85;;
28009;SDS011;15334;49.494;8.410;2023-06-14T12:24:09;4.28;;;1.95;;
28009;SDS011;15334;49.494;8.410;2023-06-14T12:26:40;5.78;;;2.92;;
28009;SDS011;15334;49.494;8.410;2023-06-14T12:29:09;5.97;;;2.65;;
28009;SDS011;15334;49.494;8.410;2023-06-14T12:31:39;6.50;;;2.90;;
28009;SDS011;15334;49.494;8.410;2023-06-14T12:34:09;4.28;;;2.55;;
28009;SDS011;15334;49.494;8.410;2023-06-14T12:36:38;5.68;;;2.22;;
28009;SDS011;15334;49.494;8.410;2023-06-14T12:39:10;4.38;;;2.50;;
28009;SDS011;15334;49.494;8.410;2023-06-14T12:41:38;4.22;;;2.53;;
28009;SDS011;15334;49.494;8.410;2023-06-14T12:44:08;5.57;;;2.70;;
28009;SDS011;15334;49.494;8.410;2023-06-14T12:46:36;8.30;;;2.50;;
28009;SDS011;15334;49.494;8.410;2023-06-14T12:49:07;5.53;;;2.50;;
28009;SDS011;15334;49.494;8.410;2023-06-14T12:51:37;5.05;;;2.22;;
28009;SDS011;15334;49.494;8.410;2023-06-14T12:54:05;3.85;;;2.22;;
28009;SDS011;15334;49.494;8.410;2023-06-14T12:56:33;3.83;;;2.28;;
28009;SDS011;15334;49.494;8.410;2023-06-14T12:59:01;5.78;;;2.63;;
28009;SDS011;15334;49.494;8.410;2023-06-14T13:01:30;5.13;;;2.50;;
28009;SDS011;15334;49.494;8.410;2023-06-14T13:03:58;5.10;;;2.67;;
28009;SDS011;15334;49.494;8.410;2023-06-14T13:06:26;8.88;;;2.92;;
28009;SDS011;15334;49.494;8.410;2023-06-14T13:08:57;4.30;;;2.45;;
28009;SDS011;15334;49.494;8.410;2023-06-14T13:11:25;6.47;;;2.42;;
28009;SDS011;15334;49.494;8.410;2023-06-14T13:13:53;4.15;;;2.22;;
28009;SDS011;15334;49.494;8.410;2023-06-14T13:16:21;6.03;;;2.25;;
28009;SDS011;15334;49.494;8.410;2023-06-14T13:18:50;5.40;;;2.15;;
28009;SDS011;15334;49.494;8.410;2023-06-14T13:21:18;4.35;;;2.08;;
28009;SDS011;15334;49.494;8.410;2023-06-14T13:23:46;3.83;;;2.08;;
28009;SDS011;15334;49.494;8.410;2023-06-14T13:26:15;6.28;;;2.30;;
28009;SDS011;15334;49.494;8.410;2023-06-14T13:28:44;6.25;;;2.40;;
28009;SDS011;15334;49.494;8.410;2023-06-14T13:31:12;6.30;;;2.75;;
28009;SDS011;15334;49.494;8.410;2023-06-14T13:33:41;5.18;;;1.90;;
28009;SDS011;15334;49.494;8.410;2023-06-14T13:36:09;4.65;;;2.55;;
28009;SDS011;15334;49.494;8.410;2023-06-14T13:38:37;5.03;;;2.53;;
28009;SDS011;15334;49.494;8.410;2023-06-14T13:41:05;4.53;;;2.30;;
28009;SDS011;15334;49.494;8.410;2023-06-14T13:43:35;5.68;;;2.67;;
28009;SDS011;15334;49.494;8.410;2023-06-14T13:46:03;4.68;;;2.38;;
28009;SDS011;15334;49.494;8.410;2023-06-14T13:48:31;4.05;;;2.40;;
28009;SDS011;15334;49.494;8.410;2023-06-14T13:50:59;2.80;;;1.70;;
28009;SDS011;15334;49.494;8.410;2023-06-14T13:53:30;4.68;;;2.30;;
28009;SDS011;15334;49.494;8.410;2023-06-14T13:55:58;5.65;;;1.95;;
28009;SDS011;15334;49.494;8.410;2023-06-14T13:58:26;4.80;;;2.40;;
28009;SDS011;15334;49.494;8.410;2023-06-14T14:00:57;5.32;;;2.65;;
28009;SDS011;15334;49.494;8.410;2023-06-14T14:03:26;4.55;;;2.65;;
28009;SDS011;15334;49.494;8.410;2023-06-14T14:05:54;3.97;;;2.47;;
28009;SDS011;15334;49.494;8.410;2023-06-14T14:08:22;4.75;;;3.05;;
28009;SDS011;15334;49.494;8.410;2023-06-14T14:10:50;3.92;;;2.30;;
28009;SDS011;15334;49.494;8.410;2023-06-14T14:13:18;5.10;;;2.90;;
28009;SDS011;15334;49.494;8.410;2023-06-14T14:15:47;6.95;;;2.50;;
28009;SDS011;15334;49.494;8.410;2023-06-14T14:18:18;4.50;;;2.50;;
28009;SDS011;15334;49.494;8.410;2023-06-14T14:20:47;4.72;;;2.45;;
28009;SDS011;15334;49.494;8.410;2023-06-14T14:23:15;4.03;;;2.50;;
28009;SDS011;15334;49.494;8.410;2023-06-14T14:25:44;4.72;;;2.70;;
28009;SDS011;15334;49.494;8.410;2023-06-14T14:28:12;4.65;;;2.38;;
28009;SDS011;15334;49.494;8.410;2023-06-14T14:30:42;7.15;;;2.40;;
28009;SDS011;15334;49.494;8.410;2023-06-14T14:33:10;5.22;;;3.08;;
28009;SDS011;15334;49.494;8.410;2023-06-14T14:38:12;5.65;;;2.60;;
28009;SDS011;15334;49.494;8.410;2023-06-14T14:40:40;4.65;;;2.75;;
28009;SDS011;15334;49.494;8.410;2023-06-14T14:43:08;5.20;;;3.08;;
28009;SDS011;15334;49.494;8.410;2023-06-14T14:45:36;8.07;;;3.13;;
28009;SDS011;15334;49.494;8.410;2023-06-14T14:48:05;4.72;;;2.70;;
28009;SDS011;15334;49.494;8.410;2023-06-14T14:50:33;8.93;;;3.55;;
28009;SDS011;15334;49.494;8.410;2023-06-14T14:53:02;7.25;;;2.97;;
28009;SDS011;15334;49.494;8.410;2023-06-14T14:55:30;5.55;;;2.90;;
28009;SDS011;15334;49.494;8.410;2023-06-14T14:58:00;4.75;;;3.05;;
28009;SDS011;15334;49.494;8.410;2023-06-14T15:00:29;4.75;;;2.50;;
28009;SDS011;15334;49.494;8.410;2023-06-14T15:02:57;5.90;;;3.97;;
28009;SDS011;15334;49.494;8.410;2023-06-14T15:05:25;9.60;;;3.13;;
28009;SDS011;15334;49.494;8.410;2023-06-14T15:10:38;4.13;;;2.60;;
28009;SDS011;15334;49.494;8.410;2023-06-14T15:13:08;4.70;;;2.80;;
28009;SDS011;15334;49.494;8.410;2023-06-14T15:15:36;5.60;;;2.85;;